createdAt,value
2022-10-18T00:00:44.325Z,100.00
2022-10-18T00:03:10.661Z,100.00
2022-10-18T00:05:37.089Z,100.00
2022-10-18T00:08:03.528Z,100.00
2022-10-18T00:10:29.939Z,100.00
2022-10-18T00:12:56.284Z,100.00
2022-10-18T00:15:22.658Z,100.00
2022-10-18T00:17:48.994Z,100.00
2022-10-18T00:20:15.387Z,100.00
2022-10-18T00:22:41.881Z,100.00
2022-10-18T00:25:10.028Z,100.00
2022-10-18T00:27:36.594Z,100.00
2022-10-18T00:30:03.685Z,100.00
2022-10-18T00:32:30.366Z,100.00
2022-10-18T00:34:57.027Z,100.00
2022-10-18T00:37:23.351Z,100.00
2022-10-18T00:39:50.199Z,100.00
2022-10-18T00:42:18.216Z,100.00
2022-10-18T00:44:44.581Z,100.00
2022-10-18T00:47:12.838Z,100.00
2022-10-18T00:49:43.023Z,100.00
2022-10-18T00:52:19.341Z,100.00
2022-10-18T00:54:48.533Z,100.00
2022-10-18T00:57:15.090Z,100.00
2022-10-18T00:59:43.070Z,100.00
2022-10-18T01:02:10.202Z,100.00
2022-10-18T01:04:36.849Z,100.00
2022-10-18T01:07:12.028Z,100.00
2022-10-18T01:10:28.028Z,100.00
2022-10-18T01:13:16.288Z,100.00
2022-10-18T01:16:10.727Z,100.00
2022-10-18T01:19:03.105Z,100.00
2022-10-18T01:21:53.335Z,100.00
2022-10-18T01:24:47.354Z,100.00
2022-10-18T01:27:33.325Z,100.00
2022-10-18T01:30:28.705Z,100.00
2022-10-18T01:33:00.757Z,100.00
2022-10-18T01:35:33.648Z,100.00
2022-10-18T01:38:04.569Z,100.00
2022-10-18T01:40:32.480Z,100.00
2022-10-18T01:42:59.994Z,100.00
2022-10-18T01:45:27.922Z,100.00
2022-10-18T01:47:54.595Z,100.00
2022-10-18T01:50:32.158Z,100.00
2022-10-18T01:52:59.249Z,100.00
2022-10-18T01:55:33.491Z,100.00
2022-10-18T01:58:12.350Z,100.00
2022-10-18T02:00:42.321Z,100.00
2022-10-18T02:03:21.338Z,100.00
2022-10-18T02:06:05.591Z,100.00
2022-10-18T02:08:39.119Z,100.00
2022-10-18T02:11:08.589Z,100.00
2022-10-18T02:13:47.345Z,100.00
2022-10-18T02:16:18.992Z,100.00
2022-10-18T02:18:52.080Z,100.00
2022-10-18T02:21:21.072Z,100.00
2022-10-18T02:23:48.484Z,100.00
2022-10-18T02:26:16.012Z,100.00
2022-10-18T02:28:43.034Z,100.00
2022-10-18T02:31:21.721Z,100.00
2022-10-18T02:33:56.756Z,100.00
2022-10-18T02:36:31.484Z,100.00
2022-10-18T02:39:04.501Z,100.00
2022-10-18T02:41:31.685Z,100.00
2022-10-18T02:43:59.049Z,100.00
2022-10-18T02:48:56.961Z,100.00
2022-10-18T02:51:23.371Z,100.00
2022-10-18T02:53:49.745Z,100.00
2022-10-18T02:56:16.665Z,100.00
2022-10-18T02:58:43.057Z,100.00
2022-10-18T03:01:09.469Z,100.00
2022-10-18T03:03:35.883Z,100.00
2022-10-18T03:06:02.259Z,100.00
2022-10-18T03:08:28.629Z,100.00
2022-10-18T03:10:54.987Z,100.00
2022-10-18T03:13:21.417Z,100.00
2022-10-18T03:15:48.587Z,100.00
2022-10-18T03:18:15.669Z,100.00
2022-10-18T03:20:42.017Z,100.00
2022-10-18T03:23:09.249Z,100.00
2022-10-18T03:25:35.688Z,100.00
2022-10-18T03:28:02.049Z,100.00
2022-10-18T03:30:28.401Z,100.00
2022-10-18T03:32:54.981Z,100.00
2022-10-18T03:35:21.393Z,100.00
2022-10-18T03:37:47.795Z,100.00
2022-10-18T03:40:14.290Z,100.00
2022-10-18T03:42:40.665Z,100.00
2022-10-18T03:45:07.649Z,100.00
2022-10-18T03:47:34.278Z,100.00
2022-10-18T03:50:00.697Z,100.00
2022-10-18T03:52:27.281Z,100.00
2022-10-18T03:54:53.737Z,100.00
2022-10-18T03:57:20.128Z,100.00
2022-10-18T03:59:48.616Z,100.00
2022-10-18T04:02:14.997Z,100.00
2022-10-18T04:04:41.373Z,100.00
2022-10-18T04:07:07.741Z,100.00
2022-10-18T04:09:34.101Z,100.00
2022-10-18T04:12:00.484Z,100.00
2022-10-18T04:14:26.833Z,100.00
2022-10-18T04:16:53.239Z,100.00
2022-10-18T04:19:19.617Z,100.00
2022-10-18T04:21:45.997Z,100.00
2022-10-18T04:24:12.695Z,100.00
2022-10-18T04:26:39.069Z,100.00
2022-10-18T04:29:05.591Z,100.00
2022-10-18T04:31:31.993Z,100.00
2022-10-18T04:33:58.765Z,100.00
2022-10-18T04:36:25.117Z,100.00
2022-10-18T04:38:51.598Z,100.00
2022-10-18T04:41:17.934Z,100.00
2022-10-18T04:46:15.589Z,100.00
2022-10-18T04:48:41.956Z,100.00
2022-10-18T04:51:08.326Z,100.00
2022-10-18T04:53:34.683Z,100.00
2022-10-18T04:56:01.215Z,100.00
2022-10-18T04:58:27.674Z,100.00
2022-10-18T05:00:54.262Z,100.00
2022-10-18T05:03:20.640Z,100.00
2022-10-18T05:06:01.244Z,100.00
2022-10-18T05:08:28.875Z,100.00
2022-10-18T05:10:55.287Z,100.00
2022-10-18T05:13:21.770Z,100.00
2022-10-18T05:15:48.132Z,100.00
2022-10-18T05:18:14.542Z,100.00
2022-10-18T05:20:40.891Z,100.00
2022-10-18T05:23:10.712Z,100.00
2022-10-18T05:25:41.909Z,100.00
2022-10-18T05:28:10.842Z,100.00
2022-10-18T05:30:47.576Z,100.00
2022-10-18T05:33:14.004Z,100.00
2022-10-18T05:35:40.340Z,100.00
2022-10-18T05:38:06.785Z,100.00
2022-10-18T05:40:33.626Z,100.00
2022-10-18T05:43:00.023Z,100.00
2022-10-18T05:45:26.356Z,100.00
2022-10-18T05:47:52.742Z,100.00
2022-10-18T05:50:19.093Z,100.00
2022-10-18T05:52:45.469Z,100.00
2022-10-18T05:55:11.949Z,100.00
2022-10-18T05:57:38.609Z,100.00
2022-10-18T06:00:05.621Z,100.00
2022-10-18T06:02:32.447Z,100.00
2022-10-18T06:04:58.873Z,100.00
2022-10-18T06:07:25.525Z,100.00
2022-10-18T06:09:51.881Z,100.00
2022-10-18T06:12:18.269Z,100.00
2022-10-18T06:14:44.674Z,100.00
2022-10-18T06:17:11.116Z,100.00
2022-10-18T06:19:37.870Z,100.00
2022-10-18T06:22:04.280Z,100.00
2022-10-18T06:24:30.629Z,100.00
2022-10-18T06:26:57.530Z,100.00
2022-10-18T06:29:23.897Z,100.00
2022-10-18T06:31:50.265Z,100.00
2022-10-18T06:34:16.595Z,100.00
2022-10-18T06:36:42.961Z,100.00
2022-10-18T06:39:10.388Z,100.00
2022-10-18T06:41:36.815Z,100.00
2022-10-18T06:44:13.212Z,100.00
2022-10-18T06:46:44.450Z,100.00
2022-10-18T06:49:14.065Z,100.00
2022-10-18T06:51:42.536Z,100.00
2022-10-18T06:54:19.333Z,100.00
2022-10-18T06:56:45.949Z,100.00
2022-10-18T06:59:12.367Z,100.00
2022-10-18T07:01:38.868Z,100.00
2022-10-18T07:04:05.323Z,100.00
2022-10-18T07:06:31.749Z,100.00
2022-10-18T07:08:58.083Z,100.00
2022-10-18T07:11:26.771Z,100.00
2022-10-18T07:14:02.224Z,100.00
2022-10-18T07:16:31.793Z,100.00
2022-10-18T07:18:58.210Z,100.00
2022-10-18T07:21:26.126Z,100.00
2022-10-18T07:23:53.196Z,100.00
2022-10-18T07:26:24.365Z,100.00
2022-10-18T07:28:57.937Z,100.00
2022-10-18T07:31:24.680Z,100.00
2022-10-18T07:33:51.921Z,100.00
2022-10-18T07:36:18.337Z,100.00
2022-10-18T07:38:44.820Z,100.00
2022-10-18T07:41:13.690Z,100.00
2022-10-18T07:43:45.943Z,100.00
2022-10-18T07:46:13.488Z,100.00
2022-10-18T07:48:40.519Z,100.00
2022-10-18T07:51:07.210Z,100.00
2022-10-18T07:53:34.544Z,100.00
2022-10-18T07:56:04.724Z,100.00
2022-10-18T07:58:34.287Z,100.00
2022-10-18T08:01:05.214Z,100.00
2022-10-18T08:03:31.617Z,100.00
2022-10-18T08:05:58.419Z,100.00
2022-10-18T08:08:25.646Z,100.00
2022-10-18T08:10:52.316Z,100.00
2022-10-18T08:13:18.794Z,100.00
2022-10-18T08:15:46.046Z,100.00
2022-10-18T08:18:12.955Z,100.00
2022-10-18T08:20:43.983Z,100.00
2022-10-18T08:23:10.359Z,100.00
2022-10-18T08:28:08.338Z,100.00
2022-10-18T08:30:36.008Z,100.00
2022-10-18T08:33:03.567Z,100.00
2022-10-18T08:35:31.601Z,100.00
2022-10-18T08:37:58.226Z,100.00
2022-10-18T08:40:26.433Z,100.00
2022-10-18T08:43:02.996Z,100.00
2022-10-18T08:45:41.869Z,100.00
2022-10-18T08:48:21.763Z,100.00
2022-10-18T08:50:49.819Z,100.00
2022-10-18T08:53:23.052Z,100.00
2022-10-18T08:55:54.677Z,100.00
2022-10-18T08:58:26.800Z,100.00
2022-10-18T09:01:25.856Z,100.00
2022-10-18T09:04:17.823Z,100.00
2022-10-18T09:07:13.584Z,100.00
2022-10-18T09:10:00.159Z,100.00
2022-10-18T09:13:06.277Z,100.00
2022-10-18T09:15:54.653Z,100.00
2022-10-18T09:18:51.627Z,100.00
2022-10-18T09:21:40.638Z,100.00
2022-10-18T09:24:21.390Z,100.00
2022-10-18T09:26:49.798Z,100.00
2022-10-18T09:29:32.639Z,100.00
2022-10-18T09:32:14.195Z,100.00
2022-10-18T09:34:44.874Z,100.00
2022-10-18T09:37:13.595Z,100.00
2022-10-18T09:39:41.040Z,100.00
2022-10-18T09:42:19.371Z,100.00
2022-10-18T09:44:50.756Z,100.00
2022-10-18T09:47:41.092Z,100.00
2022-10-18T09:50:32.900Z,100.00
2022-10-18T09:53:35.165Z,100.00
2022-10-18T09:56:07.613Z,100.00
2022-10-18T09:58:48.408Z,100.00
2022-10-18T10:01:19.871Z,100.00
2022-10-18T10:03:46.324Z,100.00
2022-10-18T10:06:12.760Z,100.00
2022-10-18T10:08:47.451Z,100.00
2022-10-18T10:11:32.068Z,100.00
2022-10-18T10:14:19.514Z,100.00
2022-10-18T10:17:03.366Z,100.00
2022-10-18T10:19:35.296Z,100.00
2022-10-18T10:22:11.060Z,100.00
2022-10-18T10:24:50.597Z,100.00
2022-10-18T10:27:21.421Z,100.00
2022-10-18T10:29:52.220Z,100.00
2022-10-18T10:32:20.638Z,100.00
2022-10-18T10:34:47.612Z,100.00
2022-10-18T10:37:25.026Z,100.00
2022-10-18T10:40:28.817Z,100.00
2022-10-18T10:43:08.902Z,100.00
2022-10-18T10:46:06.277Z,100.00
2022-10-18T10:48:41.111Z,100.00
2022-10-18T10:51:10.200Z,100.00
2022-10-18T10:53:43.953Z,100.00
2022-10-18T10:56:35.820Z,100.00
2022-10-18T10:59:13.268Z,100.00
2022-10-18T11:01:39.974Z,100.00
2022-10-18T11:04:25.141Z,100.00
2022-10-18T11:07:00.738Z,100.00
2022-10-18T11:09:42.104Z,100.00
2022-10-18T11:12:27.788Z,100.00
2022-10-18T11:15:18.240Z,100.00
2022-10-18T11:17:57.595Z,100.00
2022-10-18T11:20:35.606Z,100.00
2022-10-18T11:23:06.387Z,100.00
2022-10-18T11:25:46.633Z,100.00
2022-10-18T11:28:24.312Z,100.00
2022-10-18T11:31:24.717Z,100.00
2022-10-18T11:34:15.578Z,100.00
2022-10-18T11:37:29.404Z,100.00
2022-10-18T11:40:11.420Z,100.00
2022-10-18T11:42:53.007Z,100.00
2022-10-18T11:45:34.099Z,100.00
2022-10-18T11:48:29.836Z,100.00
2022-10-18T11:51:55.963Z,100.00
2022-10-18T11:54:36.463Z,100.00
2022-10-18T11:57:34.390Z,100.00
2022-10-18T12:00:19.888Z,100.00
2022-10-18T12:03:00.790Z,100.00
2022-10-18T12:05:29.533Z,100.00
2022-10-18T12:08:05.924Z,100.00
2022-10-18T12:10:46.025Z,93.13
2022-10-18T12:13:29.346Z,92.97
2022-10-18T12:15:57.008Z,95.71
2022-10-18T12:18:25.882Z,95.74
2022-10-18T12:20:56.822Z,100.00
2022-10-18T12:23:39.682Z,95.88
2022-10-18T12:26:10.163Z,92.60
2022-10-18T12:28:56.647Z,87.75
2022-10-18T12:31:38.693Z,89.07
2022-10-18T12:34:23.617Z,85.99
2022-10-18T12:36:59.450Z,83.49
2022-10-18T12:39:43.698Z,86.82
2022-10-18T12:42:26.126Z,84.30
2022-10-18T12:45:27.285Z,83.45
2022-10-18T12:47:58.670Z,82.79
2022-10-18T12:50:33.586Z,85.63
2022-10-18T12:53:12.292Z,91.08
2022-10-18T12:55:44.603Z,91.27
2022-10-18T12:58:13.971Z,95.59
2022-10-18T13:00:43.192Z,93.28
2022-10-18T13:03:09.782Z,90.91
2022-10-18T13:05:53.435Z,89.96
2022-10-18T13:08:27.135Z,89.74
2022-10-18T13:11:12.167Z,94.08
2022-10-18T13:14:00.464Z,89.24
2022-10-18T13:17:00.380Z,92.12
2022-10-18T13:20:24.607Z,88.00
2022-10-18T13:23:13.371Z,87.30
2022-10-18T13:26:10.096Z,87.40
2022-10-18T13:29:06.051Z,86.88
2022-10-18T13:31:47.233Z,84.78
2022-10-18T13:34:20.468Z,88.84
2022-10-18T13:36:57.373Z,94.21
2022-10-18T13:39:24.062Z,93.14
2022-10-18T13:41:53.642Z,96.02
2022-10-18T13:44:33.218Z,98.51
2022-10-18T13:46:59.485Z,97.82
2022-10-18T13:49:38.257Z,99.30
2022-10-18T13:52:34.355Z,100.00
2022-10-18T13:55:06.267Z,100.00
2022-10-18T13:57:53.192Z,98.37
2022-10-18T14:00:28.860Z,100.00
2022-10-18T14:03:37.522Z,97.75
2022-10-18T14:06:09.232Z,99.10
2022-10-18T14:08:46.313Z,99.96
2022-10-18T14:11:46.306Z,99.86
2022-10-18T14:14:29.872Z,97.40
2022-10-18T14:16:59.579Z,94.56
2022-10-18T14:19:52.176Z,95.18
2022-10-18T14:22:36.213Z,96.15
2022-10-18T14:25:02.608Z,98.71
2022-10-18T14:27:32.953Z,97.59
2022-10-18T14:30:18.467Z,99.02
2022-10-18T14:32:51.451Z,100.00
2022-10-18T14:35:32.671Z,100.00
2022-10-18T14:38:00.425Z,100.00
2022-10-18T14:40:26.747Z,100.00
2022-10-18T14:42:53.074Z,100.00
2022-10-18T14:45:21.046Z,100.00
2022-10-18T14:47:47.611Z,100.00
2022-10-18T14:50:22.400Z,100.00
2022-10-18T14:52:48.826Z,100.00
2022-10-18T14:55:28.379Z,100.00
2022-10-18T14:57:55.288Z,100.00
2022-10-18T15:00:27.138Z,100.00
2022-10-18T15:02:53.593Z,100.00
2022-10-18T15:05:23.514Z,100.00
2022-10-18T15:07:51.685Z,100.00
2022-10-18T15:10:22.293Z,100.00
2022-10-18T15:13:08.645Z,100.00
2022-10-18T15:15:36.446Z,100.00
2022-10-18T15:18:05.217Z,100.00
2022-10-18T15:20:42.498Z,100.00
2022-10-18T15:23:22.825Z,100.00
2022-10-18T15:25:50.864Z,100.00
2022-10-18T15:28:30.427Z,100.00
2022-10-18T15:31:01.868Z,100.00
2022-10-18T15:33:34.329Z,100.00
2022-10-18T15:36:17.613Z,100.00
2022-10-18T15:38:47.503Z,100.00
2022-10-18T15:41:38.953Z,100.00
2022-10-18T15:44:19.876Z,100.00
2022-10-18T15:46:47.597Z,100.00
2022-10-18T15:49:42.998Z,100.00
2022-10-18T15:52:10.605Z,100.00
2022-10-18T15:54:38.712Z,100.00
2022-10-18T15:57:10.075Z,100.00
2022-10-18T15:59:48.833Z,100.00
2022-10-18T16:02:15.559Z,100.00
2022-10-18T16:04:41.961Z,100.00
2022-10-18T16:07:10.778Z,100.00
2022-10-18T16:09:37.248Z,100.00
2022-10-18T16:12:04.524Z,100.00
2022-10-18T16:14:31.515Z,100.00
2022-10-18T16:17:00.774Z,100.00
2022-10-18T16:19:27.178Z,100.00
2022-10-18T16:21:54.570Z,100.00
2022-10-18T16:24:21.288Z,100.00
2022-10-18T16:26:48.127Z,100.00
2022-10-18T16:29:16.413Z,100.00
2022-10-18T16:31:42.962Z,100.00
2022-10-18T16:34:14.626Z,100.00
2022-10-18T16:36:41.642Z,100.00
2022-10-18T16:39:17.057Z,100.00
2022-10-18T16:41:44.154Z,100.00
2022-10-18T16:44:10.909Z,100.00
2022-10-18T16:46:37.375Z,100.00
2022-10-18T16:49:05.527Z,100.00
2022-10-18T16:51:31.885Z,100.00
2022-10-18T16:53:58.511Z,100.00
2022-10-18T16:56:32.300Z,100.00
2022-10-18T16:58:59.397Z,100.00
2022-10-18T17:01:26.454Z,100.00
2022-10-18T17:03:53.427Z,100.00
2022-10-18T17:06:32.294Z,100.00
2022-10-18T17:08:59.398Z,100.00
2022-10-18T17:11:28.215Z,100.00
2022-10-18T17:13:55.043Z,100.00
2022-10-18T17:19:01.792Z,100.00
2022-10-18T17:21:29.656Z,100.00
2022-10-18T17:24:00.489Z,100.00
2022-10-18T17:26:29.462Z,100.00
2022-10-18T17:29:00.066Z,100.00
2022-10-18T17:31:27.164Z,100.00
2022-10-18T17:33:55.231Z,100.00
2022-10-18T17:36:21.736Z,100.00
2022-10-18T17:38:53.116Z,100.00
2022-10-18T17:41:19.915Z,100.00
2022-10-18T17:43:47.938Z,100.00
2022-10-18T17:46:14.418Z,100.00
2022-10-18T17:48:41.818Z,100.00
2022-10-18T17:51:09.704Z,100.00
2022-10-18T17:53:36.738Z,100.00
2022-10-18T17:56:04.386Z,100.00
2022-10-18T17:58:31.713Z,100.00
2022-10-18T18:01:07.908Z,100.00
2022-10-18T18:03:34.326Z,100.00
2022-10-18T18:06:00.714Z,100.00
2022-10-18T18:08:27.480Z,100.00
2022-10-18T18:10:55.314Z,100.00
2022-10-18T18:13:21.769Z,100.00
2022-10-18T18:15:48.105Z,100.00
2022-10-18T18:18:14.542Z,100.00
2022-10-18T18:20:40.882Z,100.00
2022-10-18T18:23:07.263Z,100.00
2022-10-18T18:26:15.245Z,100.00
2022-10-18T18:28:50.899Z,100.00
2022-10-18T18:31:25.322Z,100.00
2022-10-18T18:33:53.303Z,100.00
2022-10-18T18:36:20.808Z,100.00
2022-10-18T18:38:47.561Z,100.00
2022-10-18T18:41:15.519Z,100.00
2022-10-18T18:43:44.381Z,100.00
2022-10-18T18:46:12.696Z,100.00
2022-10-18T18:48:40.771Z,100.00
2022-10-18T18:51:11.124Z,100.00
2022-10-18T18:53:39.809Z,100.00
2022-10-18T18:56:12.037Z,100.00
2022-10-18T18:58:39.418Z,100.00
2022-10-18T19:01:11.430Z,100.00
2022-10-18T19:03:40.161Z,100.00
2022-10-18T19:06:08.564Z,100.00
2022-10-18T19:08:37.025Z,100.00
2022-10-18T19:11:08.050Z,100.00
2022-10-18T19:13:35.697Z,100.00
2022-10-18T19:16:17.584Z,100.00
2022-10-18T19:18:44.073Z,100.00
2022-10-18T19:21:10.489Z,100.00
2022-10-18T19:23:36.839Z,100.00
2022-10-18T19:26:18.279Z,100.00
2022-10-18T19:28:44.667Z,100.00
2022-10-18T19:31:11.210Z,100.00
2022-10-18T19:33:48.129Z,100.00
2022-10-18T19:36:15.504Z,100.00
2022-10-18T19:38:42.096Z,100.00
2022-10-18T19:41:08.441Z,100.00
2022-10-18T19:43:34.829Z,100.00
2022-10-18T19:46:05.010Z,100.00
2022-10-18T19:48:31.475Z,100.00
2022-10-18T19:51:04.102Z,100.00
2022-10-18T19:53:31.246Z,100.00
2022-10-18T19:55:59.543Z,100.00
2022-10-18T19:58:26.434Z,100.00
2022-10-18T20:00:57.219Z,100.00
2022-10-18T20:03:25.240Z,100.00
2022-10-18T20:05:58.874Z,100.00
2022-10-18T20:08:26.333Z,100.00
2022-10-18T20:10:53.576Z,100.00
2022-10-18T20:13:20.772Z,100.00
2022-10-18T20:15:49.035Z,100.00
2022-10-18T20:18:16.472Z,100.00
2022-10-18T20:20:47.273Z,100.00
2022-10-18T20:23:15.613Z,100.00
2022-10-18T20:25:42.031Z,100.00
2022-10-18T20:28:10.774Z,100.00
2022-10-18T20:30:37.108Z,100.00
2022-10-18T20:33:03.587Z,100.00
2022-10-18T20:35:29.911Z,100.00
2022-10-18T20:37:56.543Z,100.00
2022-10-18T20:40:22.881Z,100.00
2022-10-18T20:42:51.409Z,100.00
2022-10-18T20:45:17.772Z,100.00
2022-10-18T20:47:44.162Z,100.00
2022-10-18T20:50:10.634Z,100.00
2022-10-18T20:52:36.993Z,100.00
2022-10-18T20:55:03.902Z,100.00
2022-10-18T20:57:34.197Z,100.00
2022-10-18T21:00:03.479Z,100.00
2022-10-18T21:02:30.122Z,100.00
2022-10-18T21:04:56.457Z,100.00
2022-10-18T21:07:22.850Z,100.00
2022-10-18T21:09:49.250Z,100.00
2022-10-18T21:12:15.742Z,100.00
2022-10-18T21:14:42.111Z,100.00
2022-10-18T21:17:08.482Z,100.00
2022-10-18T21:19:34.959Z,100.00
2022-10-18T21:22:01.517Z,100.00
2022-10-18T21:24:27.949Z,100.00
2022-10-18T21:26:54.780Z,100.00
2022-10-18T21:29:22.789Z,100.00
2022-10-18T21:31:52.343Z,100.00
2022-10-18T21:34:18.841Z,100.00
2022-10-18T21:36:46.637Z,100.00
2022-10-18T21:39:19.158Z,100.00
2022-10-18T21:41:46.555Z,100.00
2022-10-18T21:44:13.647Z,100.00
2022-10-18T21:46:40.617Z,100.00
2022-10-18T21:49:07.375Z,100.00
2022-10-18T21:51:34.030Z,100.00
2022-10-18T21:54:00.416Z,100.00
2022-10-18T21:56:33.210Z,100.00
2022-10-18T21:59:00.446Z,100.00
2022-10-18T22:01:31.039Z,100.00
2022-10-18T22:03:58.340Z,100.00
2022-10-18T22:06:26.487Z,100.00
2022-10-18T22:08:55.505Z,100.00
2022-10-18T22:11:31.229Z,100.00
2022-10-18T22:13:57.979Z,100.00
2022-10-18T22:16:25.198Z,100.00
2022-10-18T22:18:52.969Z,100.00
2022-10-18T22:21:20.779Z,100.00
2022-10-18T22:23:52.183Z,100.00
2022-10-18T22:26:21.910Z,100.00
2022-10-18T22:28:54.549Z,100.00
2022-10-18T22:31:24.225Z,100.00
2022-10-18T22:33:59.827Z,100.00
2022-10-18T22:36:26.665Z,100.00
2022-10-18T22:38:53.039Z,100.00
2022-10-18T22:41:20.042Z,100.00
2022-10-18T22:43:47.694Z,100.00
2022-10-18T22:46:14.781Z,100.00
2022-10-18T22:48:41.818Z,100.00
2022-10-18T22:51:09.269Z,100.00
2022-10-18T22:53:36.827Z,100.00
2022-10-18T22:56:04.505Z,100.00
2022-10-18T22:58:30.888Z,100.00
2022-10-18T23:01:02.203Z,100.00
2022-10-18T23:03:28.855Z,100.00
2022-10-18T23:05:55.306Z,100.00
2022-10-18T23:08:21.728Z,100.00
2022-10-18T23:10:51.716Z,100.00
2022-10-18T23:13:18.087Z,100.00
2022-10-18T23:15:44.412Z,100.00
2022-10-18T23:18:10.780Z,100.00
2022-10-18T23:20:37.110Z,100.00
2022-10-18T23:23:03.508Z,100.00
2022-10-18T23:25:29.863Z,100.00
2022-10-18T23:27:57.276Z,100.00
2022-10-18T23:30:23.692Z,100.00
2022-10-18T23:32:50.092Z,100.00
2022-10-18T23:35:16.638Z,100.00
2022-10-18T23:37:43.038Z,100.00
2022-10-18T23:40:09.953Z,100.00
2022-10-18T23:42:36.350Z,100.00
2022-10-18T23:45:03.084Z,100.00
2022-10-18T23:47:29.563Z,100.00
2022-10-18T23:49:58.727Z,100.00
2022-10-18T23:52:25.128Z,100.00
2022-10-18T23:54:51.465Z,100.00
2022-10-18T23:57:18.274Z,100.00
2022-10-18T23:59:44.644Z,100.00
